Time;durP1;ratioP1;P1;durP2;ratioP2;P2;SDS_P1;SDS_P2;PMS_P1;PMS_P2;Temp;Humidity;BMP_temperature;BMP_pressure;BME280_temperature;BME280_humidity;BME280_pressure;Samples;Min_cycle;Max_cycle;Signal;HPM_P1;HPM_P2
2022/02/19 00:01:34;;;;;;;4.07;1.45;;;18.30;62.90;;;;;;10401119;28;20456;-58
2022/02/19 00:06:37;;;;;;;2.67;1.08;;;18.30;62.80;;;;;;10418401;28;20061;-58
2022/02/19 00:11:39;;;;;;;2.17;0.77;;;18.30;62.80;;;;;;10418553;28;20017;-58
2022/02/19 00:16:40;;;;;;;2.03;0.80;;;18.30;62.70;;;;;;10412392;28;20072;-58
2022/02/19 00:21:41;;;;;;;2.88;1.08;;;18.30;62.70;;;;;;10417285;28;20099;-58
2022/02/19 00:26:42;;;;;;;2.33;0.80;;;18.30;62.80;;;;;;10398832;28;20029;-58
2022/02/19 00:31:43;;;;;;;3.40;1.10;;;18.30;62.90;;;;;;10416692;28;20393;-59
2022/02/19 00:36:44;;;;;;;2.45;0.80;;;18.30;62.90;;;;;;10414587;28;20037;-58
2022/02/19 00:41:44;;;;;;;4.18;0.65;;;18.30;63.00;;;;;;10415887;28;20025;-57
2022/02/19 00:46:45;;;;;;;3.53;0.90;;;18.30;62.80;;;;;;10415430;28;20037;-58
2022/02/19 00:51:46;;;;;;;4.70;0.80;;;18.40;62.60;;;;;;10415876;28;20355;-57
2022/02/19 00:56:47;;;;;;;2.55;1.05;;;18.40;62.50;;;;;;10415201;28;20108;-58
2022/02/19 01:01:47;;;;;;;2.10;1.00;;;18.40;62.50;;;;;;10416513;28;20039;-58
2022/02/19 01:06:48;;;;;;;3.80;0.82;;;18.30;62.70;;;;;;10416098;28;20037;-58
2022/02/19 01:11:49;;;;;;;2.65;0.90;;;18.40;62.80;;;;;;10431652;28;20163;-58
2022/02/19 01:16:49;;;;;;;2.13;0.50;;;18.30;62.70;;;;;;10410540;28;20069;-58
2022/02/19 01:21:50;;;;;;;1.70;0.73;;;18.30;62.80;;;;;;10415720;28;20033;-57
2022/02/19 01:26:51;;;;;;;2.10;0.65;;;18.30;63.50;;;;;;10414417;28;20156;-58
2022/02/19 01:31:51;;;;;;;2.22;0.60;;;18.30;62.90;;;;;;10418779;28;20119;-58
2022/02/19 01:36:52;;;;;;;3.67;1.20;;;18.30;62.80;;;;;;10421802;28;20045;-58
2022/02/19 01:41:53;;;;;;;2.53;0.63;;;18.30;62.90;;;;;;10413756;28;20386;-58
2022/02/19 01:46:54;;;;;;;1.73;0.90;;;18.30;62.90;;;;;;10429993;28;20100;-58
2022/02/19 01:51:55;;;;;;;2.42;0.68;;;18.30;62.70;;;;;;10413504;28;20060;-58
2022/02/19 01:56:55;;;;;;;1.80;0.63;;;18.30;62.60;;;;;;10429826;28;20454;-58
2022/02/19 02:01:56;;;;;;;1.70;0.80;;;18.40;62.50;;;;;;10412930;28;20029;-58
2022/02/19 02:06:57;;;;;;;3.08;1.17;;;18.40;62.40;;;;;;10412868;28;20116;-58
2022/02/19 02:11:58;;;;;;;2.22;0.80;;;18.30;62.50;;;;;;10412393;28;20033;-58
2022/02/19 02:16:59;;;;;;;2.00;0.65;;;18.40;62.50;;;;;;10400731;28;20444;-58
2022/02/19 02:21:59;;;;;;;3.47;1.00;;;18.30;62.50;;;;;;10412427;28;20116;-58
2022/02/19 02:27:05;;;;;;;1.52;0.60;;;18.30;62.60;;;;;;10412353;28;20417;-58
2022/02/19 02:32:06;;;;;;;2.40;0.70;;;18.30;62.60;;;;;;10428400;28;20116;-58
2022/02/19 02:37:07;;;;;;;3.22;0.65;;;18.30;62.60;;;;;;10403796;28;20037;-58
2022/02/19 02:42:08;;;;;;;1.67;0.98;;;18.30;62.60;;;;;;10411887;28;20030;-58
2022/02/19 02:47:09;;;;;;;1.73;0.50;;;18.30;62.50;;;;;;10428256;28;20041;-58
2022/02/19 02:52:10;;;;;;;2.72;0.82;;;18.30;62.50;;;;;;10412039;28;20029;-58
2022/02/19 02:57:11;;;;;;;2.00;0.75;;;18.30;62.50;;;;;;10428367;28;20099;-58
2022/02/19 03:02:12;;;;;;;1.85;0.80;;;18.30;62.60;;;;;;10413004;28;20539;-58
2022/02/19 03:07:12;;;;;;;3.33;0.80;;;18.30;62.50;;;;;;10412759;28;20120;-58
2022/02/19 03:12:13;;;;;;;1.13;0.68;;;18.30;62.50;;;;;;10411131;28;20037;-58
2022/02/19 03:17:14;;;;;;;1.55;0.50;;;18.30;62.50;;;;;;10399318;28;20033;-58
2022/02/19 03:22:15;;;;;;;1.77;0.52;;;18.30;62.50;;;;;;10411416;28;20082;-58
2022/02/19 03:27:16;;;;;;;1.20;0.40;;;18.30;62.50;;;;;;10411328;28;20079;-58
2022/02/19 03:32:16;;;;;;;1.70;0.75;;;18.30;62.40;;;;;;10418799;28;20106;-57
2022/02/19 03:37:17;;;;;;;3.83;0.52;;;18.40;62.50;;;;;;10426054;28;20119;-58
2022/02/19 03:42:18;;;;;;;1.80;0.82;;;18.40;62.40;;;;;;10421987;28;20088;-58
2022/02/19 03:47:19;;;;;;;2.28;0.70;;;18.30;62.40;;;;;;10421203;28;20038;-57
2022/02/19 03:52:20;;;;;;;2.22;0.70;;;18.30;62.50;;;;;;10419563;28;20103;-58
2022/02/19 03:57:20;;;;;;;2.17;0.50;;;18.40;62.50;;;;;;10427338;28;20508;-58
2022/02/19 04:02:21;;;;;;;3.13;0.70;;;18.30;62.50;;;;;;10418934;28;20034;-57
2022/02/19 04:07:22;;;;;;;1.48;0.55;;;18.30;62.50;;;;;;10418705;28;20029;-58
2022/02/19 04:12:25;;;;;;;3.25;0.63;;;18.30;62.50;;;;;;10417393;28;20078;-58
2022/02/19 04:17:25;;;;;;;1.25;0.47;;;18.30;62.60;;;;;;10422006;28;20438;-58
2022/02/19 04:22:26;;;;;;;0.68;0.30;;;18.30;62.60;;;;;;10417969;28;20033;-58
2022/02/19 04:27:27;;;;;;;2.28;0.47;;;18.30;62.50;;;;;;10417853;28;20029;-59
2022/02/19 04:32:28;;;;;;;2.22;0.63;;;18.30;62.50;;;;;;10416721;28;20494;-58
2022/02/19 04:37:29;;;;;;;3.22;0.63;;;18.30;62.60;;;;;;10417216;28;20029;-59
2022/02/19 04:42:31;;;;;;;1.50;0.60;;;18.30;62.60;;;;;;10415985;28;20049;-58
2022/02/19 04:47:33;;;;;;;0.50;0.30;;;18.30;62.60;;;;;;10415016;28;20025;-58
2022/02/19 04:52:34;;;;;;;2.30;0.70;;;18.40;62.50;;;;;;10415043;28;20381;-58
2022/02/19 04:57:36;;;;;;;1.58;0.57;;;18.30;62.50;;;;;;10422244;28;20045;-58
2022/02/19 05:02:37;;;;;;;2.22;0.50;;;18.30;62.50;;;;;;10414600;28;20025;-58
2022/02/19 05:07:38;;;;;;;1.95;0.65;;;18.30;62.50;;;;;;10413836;28;20025;-57
2022/02/19 05:12:41;;;;;;;1.05;0.52;;;18.30;62.50;;;;;;10415761;28;20116;-59
2022/02/19 05:17:48;;;;;;;0.80;0.30;;;18.30;62.40;;;;;;10405577;28;20112;-58
2022/02/19 05:22:50;;;;;;;2.45;0.45;;;18.30;62.50;;;;;;10421773;28;20453;-57
2022/02/19 05:27:51;;;;;;;1.35;0.40;;;18.40;62.40;;;;;;10419288;28;20022;-59
2022/02/19 05:32:51;;;;;;;0.95;0.30;;;18.30;62.40;;;;;;10396635;28;20048;-59
2022/02/19 05:37:52;;;;;;;1.83;0.73;;;18.30;62.50;;;;;;10413252;28;20112;-59
2022/02/19 05:42:53;;;;;;;1.30;0.40;;;18.30;62.30;;;;;;10413344;28;20036;-59
2022/02/19 05:47:53;;;;;;;1.90;0.50;;;18.30;62.50;;;;;;10429381;28;20096;-59
2022/02/19 05:52:54;;;;;;;1.25;0.45;;;18.30;62.40;;;;;;10412875;28;20026;-59
2022/02/19 05:57:55;;;;;;;2.00;0.60;;;18.30;62.40;;;;;;10414320;28;20116;-58
2022/02/19 06:02:55;;;;;;;4.65;1.05;;;18.40;62.50;;;;;;10432100;28;20025;-59
2022/02/19 06:07:56;;;;;;;3.03;0.50;;;18.40;62.40;;;;;;10413528;28;20029;-59
2022/02/19 06:12:57;;;;;;;2.53;0.60;;;18.50;62.40;;;;;;10403661;28;20037;-61
2022/02/19 06:17:58;;;;;;;7.60;0.80;;;18.50;63.40;;;;;;10399411;28;20033;-60
2022/02/19 06:23:00;;;;;;;3.75;0.80;;;18.40;63.80;;;;;;10400388;28;20036;-59
2022/02/19 06:28:00;;;;;;;5.03;1.00;;;18.40;64.10;;;;;;10404662;28;20070;-59
2022/02/19 06:33:01;;;;;;;5.65;1.63;;;18.50;64.00;;;;;;10417517;28;20695;-59
2022/02/19 06:38:02;;;;;;;5.70;1.45;;;18.50;64.20;;;;;;10410673;28;20393;-60
2022/02/19 06:43:03;;;;;;;3.83;1.63;;;18.40;64.40;;;;;;10412766;28;20029;-59
2022/02/19 06:48:04;;;;;;;6.80;1.63;;;18.40;65.00;;;;;;10410692;28;20034;-60
2022/02/19 06:53:05;;;;;;;9.63;1.48;;;18.40;65.20;;;;;;10400312;28;20034;-59
2022/02/19 06:58:05;;;;;;;8.35;1.48;;;18.40;65.10;;;;;;10408061;28;20029;-57
2022/02/19 07:03:06;;;;;;;10.68;1.60;;;18.30;64.80;;;;;;10410668;28;20026;-56
2022/02/19 07:08:07;;;;;;;11.40;2.00;;;18.30;65.20;;;;;;10411044;28;20037;-58
2022/02/19 07:13:07;;;;;;;9.90;2.05;;;18.30;64.90;;;;;;10415218;28;20215;-58
2022/02/19 07:18:09;;;;;;;15.93;2.00;;;18.30;64.60;;;;;;10419701;28;20036;-59
2022/02/19 07:23:10;;;;;;;10.95;2.17;;;18.30;64.80;;;;;;10418533;28;20033;-58
2022/02/19 07:28:10;;;;;;;16.58;1.60;;;18.20;64.70;;;;;;10419100;28;20030;-58
2022/02/19 07:33:11;;;;;;;13.18;2.38;;;18.10;64.80;;;;;;10417388;28;20124;-59
2022/02/19 07:38:12;;;;;;;10.20;2.20;;;18.10;64.60;;;;;;10409801;28;20033;-58
2022/02/19 07:43:13;;;;;;;8.43;1.67;;;18.00;63.60;;;;;;10417948;28;20034;-57
2022/02/19 07:48:14;;;;;;;8.93;1.88;;;18.10;63.20;;;;;;10418441;28;20064;-57
2022/02/19 07:58:34;;;;;;;13.05;2.85;;;18.20;62.70;;;;;;10418728;28;20041;-56
2022/02/19 08:03:35;;;;;;;14.75;2.40;;;18.10;62.30;;;;;;10411340;28;20478;-55
2022/02/19 08:08:36;;;;;;;8.63;1.63;;;18.20;63.50;;;;;;10405401;28;20029;-57
2022/02/19 08:13:37;;;;;;;20.77;2.67;;;18.10;63.20;;;;;;10414441;28;20486;-56
2022/02/19 08:18:38;;;;;;;12.73;2.15;;;18.10;62.60;;;;;;10417156;28;20056;-57
2022/02/19 08:23:39;;;;;;;9.57;1.45;;;18.20;62.80;;;;;;10415583;28;20087;-57
2022/02/19 08:28:40;;;;;;;10.50;2.33;;;18.20;62.70;;;;;;10416263;28;20025;-57
2022/02/19 08:33:41;;;;;;;16.70;3.40;;;18.20;62.50;;;;;;10412662;28;20363;-57
2022/02/19 08:38:41;;;;;;;17.65;2.33;;;18.30;60.90;;;;;;10416768;28;20033;-58
2022/02/19 08:43:42;;;;;;;16.55;2.88;;;18.40;60.60;;;;;;10415836;28;20033;-56
2022/02/19 08:48:43;;;;;;;15.32;2.88;;;18.30;60.80;;;;;;10422810;28;20022;-57
2022/02/19 08:53:43;;;;;;;14.07;2.20;;;18.30;60.90;;;;;;10413812;28;20482;-58
2022/02/19 08:58:45;;;;;;;18.23;2.95;;;18.30;61.10;;;;;;10414382;28;20034;-57
2022/02/19 09:03:46;;;;;;;19.90;3.10;;;18.30;61.00;;;;;;10414028;28;20036;-58
2022/02/19 09:08:46;;;;;;;25.35;3.42;;;18.20;61.10;;;;;;10405255;28;20454;-57
2022/02/19 09:13:47;;;;;;;20.30;3.80;;;18.50;60.70;;;;;;10413964;28;20029;-58
2022/02/19 09:18:48;;;;;;;18.13;2.72;;;18.40;60.60;;;;;;10416782;28;20030;-55
2022/02/19 09:23:49;;;;;;;15.93;2.75;;;18.20;61.40;;;;;;10414527;28;20037;-56
2022/02/19 09:28:50;;;;;;;17.08;3.42;;;18.20;61.60;;;;;;10426378;28;20021;-57
2022/02/19 09:33:51;;;;;;;19.30;3.33;;;18.10;61.80;;;;;;10426646;28;20049;-56
2022/02/19 09:38:52;;;;;;;21.48;2.83;;;18.00;62.30;;;;;;10412367;28;20487;-58
2022/02/19 09:43:53;;;;;;;23.10;3.15;;;18.10;62.60;;;;;;10413326;28;20133;-58
2022/02/19 09:48:55;;;;;;;25.23;4.07;;;18.10;62.80;;;;;;10413152;28;20355;-57
2022/02/19 09:53:56;;;;;;;16.38;2.70;;;18.30;62.60;;;;;;10429242;28;20116;-55
2022/02/19 09:59:00;;;;;;;19.15;3.17;;;18.20;62.50;;;;;;10412402;28;20511;-58
2022/02/19 10:04:04;;;;;;;12.38;3.45;;;18.30;62.20;;;;;;10429509;28;20036;-59
2022/02/19 10:09:17;;;;;;;18.88;4.10;;;18.20;62.20;;;;;;10412808;28;20109;-58
2022/02/19 10:14:31;;;;;;;15.95;2.45;;;18.30;62.50;;;;;;10406423;28;20092;-59
2022/02/19 10:19:54;;;;;;;22.55;3.00;;;18.20;61.90;;;;;;10387502;28;20030;-59
2022/02/19 10:25:09;;;;;;;13.00;2.42;;;18.10;62.10;;;;;;10425105;28;20501;-58
2022/02/19 10:30:17;;;;;;;15.40;2.60;;;18.00;62.40;;;;;;10408267;28;20543;-59
2022/02/19 10:35:21;;;;;;;18.70;2.20;;;18.00;62.60;;;;;;10409219;28;20075;-58
2022/02/19 10:40:46;;;;;;;13.88;2.58;;;17.90;62.50;;;;;;10409908;28;20071;-58
2022/02/19 10:46:02;;;;;;;9.32;2.08;;;17.90;62.70;;;;;;10409556;28;20470;-58
2022/02/19 10:51:18;;;;;;;9.80;2.03;;;17.90;62.90;;;;;;10411051;28;20041;-58
2022/02/19 10:56:20;;;;;;;8.70;2.42;;;17.80;63.20;;;;;;10428200;28;20030;-59
2022/02/19 11:01:21;;;;;;;8.63;1.67;;;17.70;63.40;;;;;;10428194;28;20033;-59
2022/02/19 11:06:23;;;;;;;8.05;1.98;;;17.70;63.40;;;;;;10412374;28;20037;-59
2022/02/19 11:11:25;;;;;;;7.70;1.52;;;17.70;63.40;;;;;;10409937;28;20045;-59
2022/02/19 11:16:27;;;;;;;9.93;1.45;;;17.70;63.90;;;;;;10423981;28;20022;-58
2022/02/19 11:21:30;;;;;;;7.15;2.20;;;17.70;63.80;;;;;;10412150;28;20038;-59
2022/02/19 11:26:31;;;;;;;5.07;1.70;;;17.70;63.70;;;;;;10411299;28;20056;-58
2022/02/19 11:31:34;;;;;;;7.25;1.55;;;17.80;63.60;;;;;;10410197;28;20069;-59
2022/02/19 11:36:36;;;;;;;7.07;1.20;;;17.80;63.50;;;;;;10418035;28;20064;-60
2022/02/19 11:41:42;;;;;;;6.55;1.67;;;17.80;63.60;;;;;;10411889;28;20045;-59
2022/02/19 11:46:43;;;;;;;5.88;1.85;;;17.70;63.60;;;;;;10405629;28;20551;-58
2022/02/19 11:51:44;;;;;;;6.38;1.58;;;17.60;63.60;;;;;;10412334;28;20045;-59
2022/02/19 11:56:46;;;;;;;5.13;1.60;;;17.70;63.90;;;;;;10414344;28;20056;-62
2022/02/19 12:02:18;;;;;;;13.35;1.63;;;17.80;64.50;;;;;;10415425;28;20029;-58
2022/02/19 12:07:18;;;;;;;10.82;2.10;;;17.80;65.00;;;;;;10415594;28;20040;-60
2022/02/19 12:12:19;;;;;;;5.75;1.63;;;17.90;65.20;;;;;;10416531;28;20116;-62
2022/02/19 12:17:23;;;;;;;8.13;2.22;;;17.90;65.50;;;;;;10416423;28;20041;-60
2022/02/19 12:22:33;;;;;;;6.63;1.65;;;17.80;66.00;;;;;;10410481;28;20482;-61
2022/02/19 12:27:35;;;;;;;13.63;2.38;;;17.80;66.50;;;;;;10415543;28;20036;-59
2022/02/19 12:32:44;;;;;;;8.98;1.73;;;17.80;66.50;;;;;;10415557;28;20041;-61
2022/02/19 12:37:45;;;;;;;19.48;1.75;;;17.70;65.90;;;;;;10424192;28;20033;-60
2022/02/19 12:42:49;;;;;;;11.43;2.45;;;17.70;65.90;;;;;;10429523;28;20037;-59
2022/02/19 12:47:50;;;;;;;7.70;2.30;;;17.60;66.00;;;;;;10423510;28;20025;-59
2022/02/19 12:52:52;;;;;;;10.57;1.67;;;17.70;66.40;;;;;;10415777;28;20034;-58
2022/02/19 12:58:01;;;;;;;6.47;1.60;;;17.60;66.20;;;;;;10406843;28;20029;-57
2022/02/19 13:03:02;;;;;;;14.82;3.28;;;17.60;66.40;;;;;;10412656;28;20037;-56
2022/02/19 13:08:10;;;;;;;8.35;1.70;;;17.60;67.00;;;;;;10409680;28;20030;-57
2022/02/19 13:13:22;;;;;;;10.50;3.13;;;17.60;66.90;;;;;;10412686;28;20113;-55
2022/02/19 13:18:35;;;;;;;17.00;2.70;;;17.50;66.80;;;;;;10414099;28;20035;-57
2022/02/19 13:23:36;;;;;;;24.15;3.28;;;17.50;67.00;;;;;;10411298;28;20091;-58
2022/02/19 13:28:57;;;;;;;12.23;4.03;;;17.50;66.80;;;;;;10413319;28;20021;-57
2022/02/19 13:33:58;;;;;;;11.27;2.35;;;17.50;66.30;;;;;;10423791;28;20057;-57
2022/02/19 13:38:59;;;;;;;18.75;2.85;;;17.50;65.90;;;;;;10411315;28;20101;-57
2022/02/19 13:44:01;;;;;;;13.80;2.70;;;17.70;65.60;;;;;;10412819;28;20025;-58
2022/02/19 13:49:03;;;;;;;15.73;2.60;;;17.70;66.10;;;;;;10412361;28;20017;-57
2022/02/19 13:54:18;;;;;;;9.38;2.55;;;17.70;66.00;;;;;;10413277;28;20087;-58
2022/02/19 13:59:19;;;;;;;19.48;2.55;;;17.90;65.60;;;;;;10405318;28;20099;-58
2022/02/19 14:04:33;;;;;;;19.20;2.60;;;18.00;65.50;;;;;;10411603;28;20038;-61
2022/02/19 14:09:34;;;;;;;14.02;3.28;;;18.00;65.00;;;;;;10410292;28;20549;-60
2022/02/19 14:14:38;;;;;;;17.40;3.03;;;18.20;64.90;;;;;;10410164;28;20045;-62
2022/02/19 14:19:52;;;;;;;16.92;3.10;;;18.30;65.00;;;;;;10412071;28;20037;-60
2022/02/19 14:25:02;;;;;;;18.65;3.72;;;18.20;66.10;;;;;;10386248;28;20379;-60
2022/02/19 14:30:03;;;;;;;15.00;3.10;;;18.00;64.80;;;;;;10427590;28;20052;-60
2022/02/19 14:35:05;;;;;;;13.02;2.95;;;17.90;64.80;;;;;;10409451;28;20049;-58
2022/02/19 14:40:06;;;;;;;12.77;2.30;;;17.90;64.70;;;;;;10408880;28;20099;-59
2022/02/19 14:45:08;;;;;;;13.15;2.40;;;17.80;64.80;;;;;;10423994;28;20026;-59
2022/02/19 14:50:11;;;;;;;9.38;2.58;;;17.80;64.80;;;;;;10425026;28;20041;-61
2022/02/19 14:55:12;;;;;;;9.80;3.05;;;17.90;64.40;;;;;;10410907;28;20167;-60
2022/02/19 15:00:14;;;;;;;11.82;2.13;;;17.90;64.10;;;;;;10412608;28;20033;-61
2022/02/19 15:05:14;;;;;;;8.13;1.73;;;18.00;63.80;;;;;;10411153;28;20034;-61
2022/02/19 15:10:15;;;;;;;9.02;2.25;;;18.10;63.50;;;;;;10412759;28;20116;-60
2022/02/19 15:15:23;;;;;;;8.43;2.38;;;18.10;63.40;;;;;;10427955;28;20076;-60
2022/02/19 15:20:25;;;;;;;6.95;1.75;;;18.20;63.20;;;;;;10411059;28;20044;-60
2022/02/19 15:25:26;;;;;;;6.95;2.25;;;18.20;63.10;;;;;;10412722;28;20224;-60
2022/02/19 15:30:27;;;;;;;6.25;2.05;;;18.20;62.90;;;;;;10417856;28;20033;-59
2022/02/19 15:35:28;;;;;;;9.40;2.03;;;18.20;62.80;;;;;;10427510;28;20045;-60
2022/02/19 15:40:28;;;;;;;9.65;2.33;;;18.20;62.80;;;;;;10417308;28;20124;-61
2022/02/19 15:45:29;;;;;;;6.03;1.85;;;18.20;62.70;;;;;;10417300;28;20040;-60
2022/02/19 15:50:31;;;;;;;9.07;2.03;;;18.20;62.60;;;;;;10417633;28;20108;-59
2022/02/19 15:55:32;;;;;;;7.32;1.85;;;18.30;62.40;;;;;;10434131;28;20087;-58
2022/02/19 16:00:33;;;;;;;14.32;2.30;;;18.30;62.40;;;;;;10391315;28;20116;-60
2022/02/19 16:05:34;;;;;;;9.15;2.10;;;18.20;63.00;;;;;;10418970;28;20068;-61
2022/02/19 16:10:34;;;;;;;12.45;2.70;;;18.30;64.00;;;;;;10419052;28;20026;-59
2022/02/19 16:15:38;;;;;;;14.27;2.65;;;18.50;63.50;;;;;;10416698;28;20597;-60
2022/02/19 16:20:39;;;;;;;16.33;2.53;;;18.50;64.20;;;;;;10417979;28;20056;-59
2022/02/19 16:25:40;;;;;;;12.15;2.75;;;18.30;65.10;;;;;;10403653;28;20064;-59
2022/02/19 16:30:40;;;;;;;10.43;2.28;;;18.30;65.40;;;;;;10423306;28;20025;-59
2022/02/19 16:35:41;;;;;;;13.45;2.67;;;18.40;65.50;;;;;;10423506;28;20056;-60
2022/02/19 16:40:43;;;;;;;20.05;3.63;;;18.30;66.20;;;;;;10432790;28;20105;-59
2022/02/19 16:45:44;;;;;;;11.35;2.45;;;18.20;66.50;;;;;;10398852;28;20033;-59
2022/02/19 16:50:45;;;;;;;8.60;2.00;;;18.10;66.80;;;;;;10412499;28;20026;-56
2022/02/19 16:55:46;;;;;;;11.80;2.95;;;18.40;66.60;;;;;;10414334;28;20033;-57
2022/02/19 17:00:46;;;;;;;11.65;2.20;;;18.60;65.80;;;;;;10414031;28;20311;-57
2022/02/19 17:05:47;;;;;;;16.77;2.25;;;18.80;65.90;;;;;;10401507;28;20097;-54
2022/02/19 17:10:49;;;;;;;9.18;2.28;;;18.70;66.70;;;;;;10408073;28;20029;-57
2022/02/19 17:15:50;;;;;;;7.20;2.25;;;18.60;68.40;;;;;;10412852;28;20021;-55
2022/02/19 17:20:52;;;;;;;11.32;5.00;;;18.80;68.10;;;;;;10408442;28;20107;-57
2022/02/19 17:25:53;;;;;;;8.95;2.45;;;18.80;71.80;;;;;;10406891;28;20033;-55
2022/02/19 17:30:54;;;;;;;12.02;3.05;;;19.00;67.40;;;;;;10413222;28;20413;-56
2022/02/19 17:35:58;;;;;;;10.32;2.50;;;19.00;66.30;;;;;;10412635;28;20084;-58
2022/02/19 17:40:59;;;;;;;8.05;1.77;;;18.80;65.60;;;;;;10417222;28;20056;-57
2022/02/19 17:46:01;;;;;;;8.52;1.95;;;18.60;64.90;;;;;;10411969;28;20026;-58
2022/02/19 17:51:02;;;;;;;7.68;2.03;;;18.60;63.50;;;;;;10411560;28;20037;-58
2022/02/19 17:56:03;;;;;;;10.98;1.70;;;18.50;63.60;;;;;;10408204;28;20069;-58
2022/02/19 18:01:04;;;;;;;8.10;1.80;;;18.60;64.20;;;;;;10411061;28;20032;-57
2022/02/19 18:06:05;;;;;;;9.68;1.85;;;18.60;64.40;;;;;;10427187;28;20565;-59
2022/02/19 18:11:06;;;;;;;10.55;2.33;;;18.50;63.80;;;;;;10419009;28;20094;-58
2022/02/19 18:16:07;;;;;;;10.73;2.15;;;18.50;64.00;;;;;;10404262;28;20037;-57
2022/02/19 18:21:08;;;;;;;12.30;1.75;;;18.40;64.60;;;;;;10409222;28;20129;-58
2022/02/19 18:26:11;;;;;;;7.05;1.77;;;18.30;64.90;;;;;;10410963;28;20049;-58
2022/02/19 18:31:11;;;;;;;7.15;1.80;;;18.20;65.20;;;;;;10417824;28;20025;-59
2022/02/19 18:36:12;;;;;;;14.73;2.50;;;18.30;64.90;;;;;;10411073;28;20045;-59
2022/02/19 18:41:14;;;;;;;8.23;2.10;;;18.30;64.90;;;;;;10409452;28;20053;-58
2022/02/19 18:46:16;;;;;;;18.15;2.25;;;18.30;64.70;;;;;;10407696;28;20033;-58
2022/02/19 18:51:17;;;;;;;8.73;2.30;;;18.30;64.80;;;;;;10398467;28;20030;-58
2022/02/19 18:56:17;;;;;;;14.55;2.08;;;18.40;64.40;;;;;;10394660;28;20026;-56
2022/02/19 19:01:19;;;;;;;4.65;1.30;;;18.40;64.30;;;;;;10428861;28;20075;-59
2022/02/19 19:06:20;;;;;;;9.88;2.08;;;18.40;64.20;;;;;;10420957;28;20056;-58
2022/02/19 19:11:20;;;;;;;6.82;1.75;;;18.30;64.30;;;;;;10408713;28;20036;-60
2022/02/19 19:16:21;;;;;;;9.45;1.65;;;18.20;64.40;;;;;;10378550;28;20105;-59
2022/02/19 19:21:22;;;;;;;5.18;1.45;;;18.30;64.30;;;;;;10416552;28;20064;-59
2022/02/19 19:26:23;;;;;;;6.10;1.65;;;18.30;64.20;;;;;;10418278;28;20109;-58
2022/02/19 19:31:24;;;;;;;4.15;1.90;;;18.30;64.30;;;;;;10418192;28;20072;-59
2022/02/19 19:36:25;;;;;;;4.88;1.58;;;18.30;64.00;;;;;;10422426;28;20053;-60
2022/02/19 19:41:25;;;;;;;6.05;1.63;;;18.40;64.00;;;;;;10431861;28;20033;-59
2022/02/19 19:46:27;;;;;;;4.97;1.23;;;18.40;63.90;;;;;;10416525;28;20022;-59
2022/02/19 19:51:28;;;;;;;6.47;1.85;;;18.40;63.80;;;;;;10420556;28;20249;-58
2022/02/19 19:56:31;;;;;;;9.40;1.95;;;18.40;63.90;;;;;;10397141;28;20120;-59
2022/02/19 20:01:32;;;;;;;4.18;0.95;;;18.30;63.80;;;;;;10416761;28;20036;-58
2022/02/19 20:06:33;;;;;;;3.22;1.05;;;18.40;63.80;;;;;;10412039;28;20119;-59
2022/02/19 20:11:33;;;;;;;4.05;1.13;;;18.40;63.80;;;;;;10417902;28;20021;-59
2022/02/19 20:16:34;;;;;;;3.58;1.00;;;18.40;63.70;;;;;;10414056;28;20033;-59
2022/02/19 20:21:35;;;;;;;4.45;1.65;;;18.40;63.60;;;;;;10415037;28;20030;-60
2022/02/19 20:26:35;;;;;;;5.55;1.40;;;18.30;63.90;;;;;;10414772;28;20549;-60
2022/02/19 20:31:36;;;;;;;7.13;1.25;;;18.30;64.40;;;;;;10414583;28;20381;-60
2022/02/19 20:36:40;;;;;;;5.43;1.08;;;18.40;64.00;;;;;;10420639;28;20555;-61
2022/02/19 20:41:41;;;;;;;3.50;1.25;;;18.30;64.00;;;;;;10412941;28;20033;-61
2022/02/19 20:46:42;;;;;;;3.25;1.20;;;18.20;64.10;;;;;;10415123;28;20048;-61
2022/02/19 20:51:42;;;;;;;3.08;1.17;;;18.10;64.30;;;;;;10406302;28;20401;-61
2022/02/19 20:56:43;;;;;;;3.63;0.80;;;18.00;64.90;;;;;;10410516;28;20043;-60
2022/02/19 21:01:44;;;;;;;2.67;0.70;;;18.10;64.00;;;;;;10398511;28;20034;-61
2022/02/19 21:06:45;;;;;;;2.50;0.82;;;18.20;63.60;;;;;;10415847;28;20116;-60
2022/02/19 21:11:46;;;;;;;3.80;0.88;;;18.30;63.30;;;;;;10385982;28;20064;-60
2022/02/19 21:16:47;;;;;;;2.25;0.82;;;18.30;63.30;;;;;;10413719;28;20029;-60
2022/02/19 21:21:48;;;;;;;3.75;1.00;;;18.30;63.20;;;;;;10413187;28;20498;-61
2022/02/19 21:26:48;;;;;;;1.70;0.88;;;18.20;63.20;;;;;;10417971;28;20033;-61
2022/02/19 21:31:49;;;;;;;2.65;1.15;;;18.30;63.20;;;;;;10414467;28;20482;-61
2022/02/19 21:36:51;;;;;;;4.68;0.95;;;18.30;63.20;;;;;;10419086;28;20053;-61
2022/02/19 21:41:52;;;;;;;3.05;0.77;;;18.20;63.20;;;;;;10430458;28;20120;-62
2022/02/19 21:46:53;;;;;;;3.40;1.05;;;18.20;63.10;;;;;;10395796;28;20401;-61
2022/02/19 21:51:53;;;;;;;2.25;0.70;;;18.30;63.00;;;;;;10416917;28;20438;-61
2022/02/19 21:56:54;;;;;;;1.13;0.50;;;18.30;62.80;;;;;;10414806;28;20120;-61
2022/02/19 22:01:55;;;;;;;3.63;0.70;;;18.40;62.70;;;;;;10414553;28;20033;-61
2022/02/19 22:06:55;;;;;;;1.30;0.50;;;18.40;62.50;;;;;;10414741;28;20027;-60
2022/02/19 22:11:56;;;;;;;2.45;0.68;;;18.40;62.60;;;;;;10414145;28;20040;-61
2022/02/19 22:16:57;;;;;;;3.28;0.88;;;18.30;62.60;;;;;;10414172;28;20037;-61
2022/02/19 22:21:59;;;;;;;2.28;0.93;;;18.40;62.50;;;;;;10412419;28;20037;-61
2022/02/19 22:27:00;;;;;;;3.72;0.95;;;18.40;62.60;;;;;;10413979;28;20112;-61
2022/02/19 22:32:01;;;;;;;4.93;0.65;;;18.40;62.40;;;;;;10412162;28;20021;-62
2022/02/19 22:37:03;;;;;;;1.83;0.57;;;18.40;62.50;;;;;;10416655;28;20127;-61
2022/02/19 22:42:03;;;;;;;1.08;0.45;;;18.50;62.30;;;;;;10428785;28;20053;-61
2022/02/19 22:47:05;;;;;;;1.48;0.50;;;18.50;62.00;;;;;;10412002;28;20029;-62
2022/02/19 22:52:06;;;;;;;1.77;0.60;;;18.50;62.00;;;;;;10398969;28;20375;-60
2022/02/19 22:57:07;;;;;;;1.33;0.60;;;18.50;61.80;;;;;;10413050;28;20037;-60
2022/02/19 23:02:07;;;;;;;5.45;0.70;;;18.60;61.90;;;;;;10412627;28;20040;-60
2022/02/19 23:07:08;;;;;;;1.25;0.47;;;18.60;62.00;;;;;;10413041;28;20037;-56
2022/02/19 23:12:09;;;;;;;1.15;0.60;;;18.50;62.00;;;;;;10411565;28;20041;-57
2022/02/19 23:17:10;;;;;;;2.10;0.65;;;18.50;62.10;;;;;;10411743;28;20112;-57
2022/02/19 23:22:11;;;;;;;1.67;0.68;;;18.50;62.00;;;;;;10412390;28;20450;-57
2022/02/19 23:27:11;;;;;;;2.65;0.63;;;18.60;61.80;;;;;;10412469;28;20433;-57
2022/02/19 23:32:12;;;;;;;2.65;0.47;;;18.60;62.30;;;;;;10411851;28;20622;-57
2022/02/19 23:37:13;;;;;;;1.85;0.63;;;18.60;61.80;;;;;;10415278;28;20125;-57
2022/02/19 23:42:14;;;;;;;0.57;0.38;;;18.60;61.80;;;;;;10427362;28;20044;-57
2022/02/19 23:47:14;;;;;;;1.02;0.40;;;18.60;61.70;;;;;;10414889;28;20031;-57
2022/02/19 23:52:15;;;;;;;0.85;0.30;;;18.60;61.80;;;;;;10419621;28;20030;-57
2022/02/19 23:57:16;;;;;;;1.15;0.40;;;18.60;61.60;;;;;;10419332;28;20037;-57
